Time;durP1;ratioP1;P1;durP2;ratioP2;P2;SDS_P1;SDS_P2;PMS_P1;PMS_P2;Temp;Humidity;BMP_temperature;BMP_pressure;BME280_temperature;BME280_humidity;BME280_pressure;Samples;Min_cycle;Max_cycle;Signal;HPM_P1;HPM_P2
2023/02/03 00:02:04;;;;;;;;;25.75;22.50;;;;;;;;5039811;28;51403;-55
2023/02/03 00:04:48;;;;;;;;;19.50;19.50;;;;;;;;5048537;28;51089;-54
2023/02/03 00:07:34;;;;;;;;;25.25;21.75;;;;;;;;5041390;28;51517;-53
2023/02/03 00:10:21;;;;;;;;;27.25;23.25;;;;;;;;5046564;28;51044;-55
2023/02/03 00:13:06;;;;;;;;;22.00;16.75;;;;;;;;5054676;28;51148;-53
2023/02/03 00:15:50;;;;;;;;;25.00;22.50;;;;;;;;5056699;28;51291;-54
2023/02/03 00:18:34;;;;;;;;;19.25;17.75;;;;;;;;5053865;28;51333;-53
2023/02/03 00:21:19;;;;;;;;;17.50;13.25;;;;;;;;5056693;28;51531;-54
2023/02/03 00:24:04;;;;;;;;;18.75;17.00;;;;;;;;5055979;28;51337;-54
2023/02/03 00:26:48;;;;;;;;;16.75;16.00;;;;;;;;5057853;28;51424;-54
2023/02/03 00:29:32;;;;;;;;;19.00;14.75;;;;;;;;5056293;28;51160;-53
2023/02/03 00:32:17;;;;;;;;;21.00;20.00;;;;;;;;5056133;28;51768;-55
2023/02/03 00:35:01;;;;;;;;;18.00;16.00;;;;;;;;5059695;27;51152;-55
2023/02/03 00:37:52;;;;;;;;;12.75;11.50;;;;;;;;5059130;28;51164;-55
2023/02/03 00:40:37;;;;;;;;;21.75;18.25;;;;;;;;5058963;28;51781;-52
2023/02/03 00:43:21;;;;;;;;;19.25;16.25;;;;;;;;5059087;28;51261;-51
2023/02/03 00:46:06;;;;;;;;;17.25;14.50;;;;;;;;5057564;28;51471;-54
2023/02/03 00:48:50;;;;;;;;;17.00;15.50;;;;;;;;5057824;28;51173;-52
2023/02/03 00:51:34;;;;;;;;;18.50;16.50;;;;;;;;5060555;28;51128;-55
2023/02/03 00:54:20;;;;;;;;;18.50;16.00;;;;;;;;5058100;28;51277;-52
2023/02/03 00:57:04;;;;;;;;;18.25;15.50;;;;;;;;5060982;28;51578;-53
2023/02/03 00:59:48;;;;;;;;;23.50;19.25;;;;;;;;5059266;27;51164;-53
2023/02/03 01:02:33;;;;;;;;;18.75;17.00;;;;;;;;5059487;28;51205;-50
2023/02/03 01:05:17;;;;;;;;;19.00;17.00;;;;;;;;5057932;28;51412;-53
2023/02/03 01:08:02;;;;;;;;;16.50;16.00;;;;;;;;5057832;28;51600;-51
2023/02/03 01:10:47;;;;;;;;;21.75;16.50;;;;;;;;5059122;28;51134;-56
2023/02/03 01:13:31;;;;;;;;;20.50;16.50;;;;;;;;5058724;28;51086;-55
2023/02/03 01:16:17;;;;;;;;;18.50;16.00;;;;;;;;5059947;28;51528;-52
2023/02/03 01:19:02;;;;;;;;;18.50;17.00;;;;;;;;5058553;28;51136;-56
2023/02/03 01:21:46;;;;;;;;;18.00;18.00;;;;;;;;5058818;28;51548;-53
2023/02/03 01:24:31;;;;;;;;;16.75;14.00;;;;;;;;5059990;28;51449;-55
2023/02/03 01:27:15;;;;;;;;;18.00;15.25;;;;;;;;5059397;28;51130;-55
2023/02/03 01:30:00;;;;;;;;;17.75;16.25;;;;;;;;5058715;28;51541;-52
2023/02/03 01:32:44;;;;;;;;;19.50;16.50;;;;;;;;5058996;28;51172;-56
2023/02/03 01:35:28;;;;;;;;;22.50;18.25;;;;;;;;5061193;28;51707;-53
2023/02/03 01:38:13;;;;;;;;;22.00;16.25;;;;;;;;5057951;28;51124;-53
2023/02/03 01:40:57;;;;;;;;;20.00;19.50;;;;;;;;5059507;28;51183;-55
2023/02/03 01:43:44;;;;;;;;;19.00;17.25;;;;;;;;5059251;28;51178;-53
2023/02/03 01:47:00;;;;;;;;;17.50;16.00;;;;;;;;5059859;28;51505;-56
2023/02/03 01:49:51;;;;;;;;;18.50;16.25;;;;;;;;5030913;28;51387;-52
2023/02/03 01:52:38;;;;;;;;;22.00;16.75;;;;;;;;5057335;28;51131;-54
2023/02/03 01:55:25;;;;;;;;;14.25;14.25;;;;;;;;5058497;28;51121;-53
2023/02/03 01:58:30;;;;;;;;;19.50;18.25;;;;;;;;5057838;28;51461;-55
2023/02/03 02:01:14;;;;;;;;;18.00;16.75;;;;;;;;5057968;28;51145;-50
2023/02/03 02:04:01;;;;;;;;;18.50;15.50;;;;;;;;5059108;28;51380;-55
2023/02/03 02:06:47;;;;;;;;;18.00;15.75;;;;;;;;5058531;28;52372;-55
2023/02/03 02:09:31;;;;;;;;;18.00;15.25;;;;;;;;5059755;28;51078;-58
2023/02/03 02:12:16;;;;;;;;;20.50;16.25;;;;;;;;5048958;28;51131;-56
2023/02/03 02:15:00;;;;;;;;;18.50;17.00;;;;;;;;5044622;28;51155;-54
2023/02/03 02:17:57;;;;;;;;;18.25;14.50;;;;;;;;5042082;28;52319;-54
2023/02/03 02:20:58;;;;;;;;;18.50;17.00;;;;;;;;5046383;28;51145;-54
2023/02/03 02:23:49;;;;;;;;;23.50;18.50;;;;;;;;5038275;28;51162;-55
2023/02/03 02:26:36;;;;;;;;;18.50;16.50;;;;;;;;5043483;28;51130;-52
2023/02/03 02:29:39;;;;;;;;;19.75;17.50;;;;;;;;5043033;28;51111;-56
2023/02/03 02:32:29;;;;;;;;;21.00;16.50;;;;;;;;5040877;28;51500;-53
2023/02/03 02:35:29;;;;;;;;;17.25;16.00;;;;;;;;5040176;28;52101;-54
2023/02/03 02:38:18;;;;;;;;;15.50;15.50;;;;;;;;5049670;28;51143;-54
2023/02/03 02:41:02;;;;;;;;;15.00;15.00;;;;;;;;5041998;28;51843;-56
2023/02/03 02:43:52;;;;;;;;;18.50;18.50;;;;;;;;5041151;28;51266;-53
2023/02/03 02:46:38;;;;;;;;;20.25;18.25;;;;;;;;5047006;28;52258;-53
2023/02/03 02:49:22;;;;;;;;;12.50;12.00;;;;;;;;5042091;28;51204;-54
2023/02/03 02:52:07;;;;;;;;;22.00;17.00;;;;;;;;5042934;28;51168;-52
2023/02/03 02:54:53;;;;;;;;;19.00;16.25;;;;;;;;5042649;28;51216;-54
2023/02/03 02:57:38;;;;;;;;;20.25;17.25;;;;;;;;5038676;28;51537;-54
2023/02/03 03:00:23;;;;;;;;;17.25;16.75;;;;;;;;5040159;28;51217;-51
2023/02/03 03:03:15;;;;;;;;;19.00;16.50;;;;;;;;5040736;28;51081;-54
2023/02/03 03:06:02;;;;;;;;;16.00;15.75;;;;;;;;5041766;28;51131;-54
2023/02/03 03:08:48;;;;;;;;;18.00;16.75;;;;;;;;5045694;28;51142;-54
2023/02/03 03:11:38;;;;;;;;;17.50;15.50;;;;;;;;5042104;28;51328;-55
2023/02/03 03:14:23;;;;;;;;;19.25;17.50;;;;;;;;5057014;28;52633;-54
2023/02/03 03:17:10;;;;;;;;;18.25;18.25;;;;;;;;5056050;27;51148;-52
2023/02/03 03:19:55;;;;;;;;;23.25;18.50;;;;;;;;5057906;28;51331;-53
2023/02/03 03:22:44;;;;;;;;;18.75;16.50;;;;;;;;5057290;28;51079;-52
2023/02/03 03:25:36;;;;;;;;;16.00;15.00;;;;;;;;5056088;28;51253;-51
2023/02/03 03:28:25;;;;;;;;;21.25;17.25;;;;;;;;5058637;27;51184;-57
2023/02/03 03:31:09;;;;;;;;;20.50;15.50;;;;;;;;5058289;28;51163;-56
2023/02/03 03:33:54;;;;;;;;;22.75;20.50;;;;;;;;5065434;27;51321;-54
2023/02/03 03:36:45;;;;;;;;;25.75;20.75;;;;;;;;5056747;28;51308;-55
2023/02/03 03:39:48;;;;;;;;;30.00;22.75;;;;;;;;5058357;28;51021;-53
2023/02/03 03:42:41;;;;;;;;;29.50;24.50;;;;;;;;5055211;28;51485;-53
2023/02/03 03:45:35;;;;;;;;;25.75;21.50;;;;;;;;5057075;28;51444;-54
2023/02/03 03:48:23;;;;;;;;;29.50;24.50;;;;;;;;5056862;28;51246;-53
2023/02/03 03:51:14;;;;;;;;;26.75;26.25;;;;;;;;5059519;27;51074;-52
2023/02/03 03:54:01;;;;;;;;;27.25;26.75;;;;;;;;5056026;28;52622;-56
2023/02/03 03:57:00;;;;;;;;;28.75;25.75;;;;;;;;5056194;28;51137;-53
2023/02/03 03:59:46;;;;;;;;;28.75;25.25;;;;;;;;5057214;28;51237;-54
2023/02/03 04:02:32;;;;;;;;;34.75;29.50;;;;;;;;5057026;28;51132;-53
2023/02/03 04:05:17;;;;;;;;;34.00;30.00;;;;;;;;5053858;28;51144;-53
2023/02/03 04:08:02;;;;;;;;;34.50;29.00;;;;;;;;5054677;28;51161;-52
2023/02/03 04:10:46;;;;;;;;;30.75;29.00;;;;;;;;5058281;28;51517;-55
2023/02/03 04:13:30;;;;;;;;;29.25;28.00;;;;;;;;5054309;28;51484;-51
2023/02/03 04:16:15;;;;;;;;;32.00;29.25;;;;;;;;5053364;28;51034;-53
2023/02/03 04:18:59;;;;;;;;;28.75;27.25;;;;;;;;5054343;28;51571;-54
2023/02/03 04:21:43;;;;;;;;;33.75;30.00;;;;;;;;5057312;28;51120;-50
2023/02/03 04:24:28;;;;;;;;;31.50;26.00;;;;;;;;5056143;28;51119;-54
2023/02/03 04:27:12;;;;;;;;;30.75;26.25;;;;;;;;5054590;28;51141;-51
2023/02/03 04:29:57;;;;;;;;;32.75;30.50;;;;;;;;5052085;28;51576;-53
2023/02/03 04:32:41;;;;;;;;;36.00;32.00;;;;;;;;5054858;28;51059;-52
2023/02/03 04:35:26;;;;;;;;;34.25;29.00;;;;;;;;5056187;28;51047;-55
2023/02/03 04:38:11;;;;;;;;;51.25;38.75;;;;;;;;5056459;28;51444;-54
2023/02/03 04:40:55;;;;;;;;;69.00;44.00;;;;;;;;5057014;28;51161;-51
2023/02/03 04:43:39;;;;;;;;;74.75;44.25;;;;;;;;5053604;28;51066;-54
2023/02/03 04:46:24;;;;;;;;;49.50;33.75;;;;;;;;5056411;28;51116;-51
2023/02/03 04:49:10;;;;;;;;;44.25;33.25;;;;;;;;5056161;28;51094;-56
2023/02/03 04:51:54;;;;;;;;;47.50;33.50;;;;;;;;5057011;28;51260;-52
2023/02/03 04:54:39;;;;;;;;;42.25;30.25;;;;;;;;5054548;28;51239;-51
2023/02/03 04:57:23;;;;;;;;;53.25;37.00;;;;;;;;5053449;28;51262;-52
2023/02/03 05:00:08;;;;;;;;;51.50;35.50;;;;;;;;5053861;28;51084;-51
2023/02/03 05:02:53;;;;;;;;;35.25;31.25;;;;;;;;5055543;28;51165;-56
2023/02/03 05:05:37;;;;;;;;;33.00;30.50;;;;;;;;5053691;28;51163;-55
2023/02/03 05:08:21;;;;;;;;;38.25;30.25;;;;;;;;5055610;28;52237;-53
2023/02/03 05:11:06;;;;;;;;;38.50;32.00;;;;;;;;5054558;28;51112;-54
2023/02/03 05:13:50;;;;;;;;;34.75;32.00;;;;;;;;5055891;28;51193;-55
2023/02/03 05:16:34;;;;;;;;;34.00;30.25;;;;;;;;5054948;28;51117;-54
2023/02/03 05:19:19;;;;;;;;;45.00;31.50;;;;;;;;5055488;28;52813;-52
2023/02/03 05:22:03;;;;;;;;;32.50;28.75;;;;;;;;5058605;28;51225;-54
2023/02/03 05:24:48;;;;;;;;;37.75;32.00;;;;;;;;5061031;28;51113;-52
2023/02/03 05:27:32;;;;;;;;;36.50;30.00;;;;;;;;5056959;28;51536;-54
2023/02/03 05:30:17;;;;;;;;;36.50;32.50;;;;;;;;5057915;27;51217;-55
2023/02/03 05:33:01;;;;;;;;;39.25;34.00;;;;;;;;5057118;28;51164;-54
2023/02/03 05:35:45;;;;;;;;;35.75;32.00;;;;;;;;5059378;28;51099;-54
2023/02/03 05:38:30;;;;;;;;;40.75;34.25;;;;;;;;5059103;28;51528;-55
2023/02/03 05:44:18;;;;;;;;;40.00;35.75;;;;;;;;5058258;28;51169;-54
2023/02/03 05:47:02;;;;;;;;;48.00;36.00;;;;;;;;5060246;28;51160;-54
2023/02/03 05:49:47;;;;;;;;;48.25;38.25;;;;;;;;5057723;28;51114;-54
2023/02/03 05:52:31;;;;;;;;;44.75;38.00;;;;;;;;5058464;28;51602;-54
2023/02/03 05:55:16;;;;;;;;;48.75;41.00;;;;;;;;5058833;28;51275;-53
2023/02/03 05:58:00;;;;;;;;;50.75;39.25;;;;;;;;5059147;28;51628;-52
2023/02/03 06:00:44;;;;;;;;;60.50;44.75;;;;;;;;5059058;28;51316;-54
2023/02/03 06:03:29;;;;;;;;;55.00;42.50;;;;;;;;5062725;27;51562;-53
2023/02/03 06:06:13;;;;;;;;;50.00;40.00;;;;;;;;5058667;28;51319;-53
2023/02/03 06:09:02;;;;;;;;;50.50;41.25;;;;;;;;5057153;28;51718;-54
2023/02/03 06:11:47;;;;;;;;;51.25;42.00;;;;;;;;5052034;28;51186;-54
2023/02/03 06:14:31;;;;;;;;;51.25;40.75;;;;;;;;5042238;28;51132;-54
2023/02/03 06:17:16;;;;;;;;;54.25;43.75;;;;;;;;5046723;28;51421;-53
2023/02/03 06:20:10;;;;;;;;;47.50;38.25;;;;;;;;5041971;28;51578;-55
2023/02/03 06:22:54;;;;;;;;;52.75;42.75;;;;;;;;5040241;28;51103;-54
2023/02/03 06:25:38;;;;;;;;;54.50;43.75;;;;;;;;5043407;28;51205;-56
2023/02/03 06:28:23;;;;;;;;;62.00;48.00;;;;;;;;5043977;28;51219;-54
2023/02/03 06:31:07;;;;;;;;;62.00;45.75;;;;;;;;5047469;28;51069;-53
2023/02/03 06:33:52;;;;;;;;;60.00;47.00;;;;;;;;5039937;28;51676;-53
2023/02/03 06:36:36;;;;;;;;;63.25;49.00;;;;;;;;5038970;28;51388;-57
2023/02/03 06:39:20;;;;;;;;;67.25;51.25;;;;;;;;5045216;28;51122;-51
2023/02/03 06:42:05;;;;;;;;;69.25;53.75;;;;;;;;5041268;28;51575;-51
2023/02/03 06:44:49;;;;;;;;;62.75;49.00;;;;;;;;5054643;28;51220;-56
2023/02/03 06:47:34;;;;;;;;;66.25;49.75;;;;;;;;5036308;28;51645;-54
2023/02/03 06:50:18;;;;;;;;;66.25;51.50;;;;;;;;5044816;28;51187;-54
2023/02/03 06:53:03;;;;;;;;;63.75;50.00;;;;;;;;5042116;28;51072;-52
2023/02/03 06:55:47;;;;;;;;;65.75;49.50;;;;;;;;5044352;28;52585;-54
2023/02/03 06:58:31;;;;;;;;;62.00;49.50;;;;;;;;5039020;28;51771;-53
2023/02/03 07:01:16;;;;;;;;;66.00;50.50;;;;;;;;5044005;28;51435;-56
2023/02/03 07:04:00;;;;;;;;;63.50;51.00;;;;;;;;5044112;28;51090;-52
2023/02/03 07:06:45;;;;;;;;;66.75;49.75;;;;;;;;5048774;28;51163;-55
2023/02/03 07:09:29;;;;;;;;;56.00;46.25;;;;;;;;5038317;28;51598;-48
2023/02/03 07:12:14;;;;;;;;;60.50;46.00;;;;;;;;5058459;28;51537;-51
2023/02/03 07:14:58;;;;;;;;;65.00;49.75;;;;;;;;5060974;28;51617;-51
2023/02/03 07:17:42;;;;;;;;;63.75;50.00;;;;;;;;5061687;27;51317;-48
2023/02/03 07:20:27;;;;;;;;;62.25;48.00;;;;;;;;5059573;28;51427;-49
2023/02/03 07:23:12;;;;;;;;;64.25;49.75;;;;;;;;5059004;28;51662;-52
2023/02/03 07:26:01;;;;;;;;;78.75;59.00;;;;;;;;5059242;28;51130;-51
2023/02/03 07:52:22;;;;;;;;;57.00;43.25;;;;;;;;4354828;32;51624;-47
2023/02/03 07:55:07;;;;;;;;;60.50;47.50;;;;;;;;5096254;27;51123;-50
2023/02/03 07:57:55;;;;;;;;;58.75;46.25;;;;;;;;5097134;27;51104;-53
2023/02/03 08:00:39;;;;;;;;;57.50;45.25;;;;;;;;5097512;27;51017;-50
2023/02/03 08:03:24;;;;;;;;;58.25;45.00;;;;;;;;5096182;27;51572;-47
2023/02/03 08:06:08;;;;;;;;;48.25;38.50;;;;;;;;5096979;27;51142;-51
2023/02/03 08:08:53;;;;;;;;;47.75;38.75;;;;;;;;5096135;27;51298;-51
2023/02/03 08:11:37;;;;;;;;;53.50;40.00;;;;;;;;5095253;27;51419;-49
2023/02/03 08:14:22;;;;;;;;;52.00;41.00;;;;;;;;5096968;27;51699;-53
2023/02/03 08:17:06;;;;;;;;;53.50;43.50;;;;;;;;5094014;27;51075;-52
2023/02/03 08:19:51;;;;;;;;;48.50;38.50;;;;;;;;5086216;27;51175;-51
2023/02/03 08:22:35;;;;;;;;;29.25;25.75;;;;;;;;5096268;27;51542;-51
2023/02/03 08:25:20;;;;;;;;;37.00;29.50;;;;;;;;5096919;27;51109;-53
2023/02/03 08:28:04;;;;;;;;;25.75;25.25;;;;;;;;5096278;27;51480;-51
2023/02/03 08:30:48;;;;;;;;;30.25;26.25;;;;;;;;5095443;27;52587;-49
2023/02/03 08:33:33;;;;;;;;;30.50;27.75;;;;;;;;5097054;27;51118;-50
2023/02/03 08:36:17;;;;;;;;;24.50;22.00;;;;;;;;5096240;27;51085;-51
2023/02/03 08:39:02;;;;;;;;;24.25;22.75;;;;;;;;5096460;27;51560;-49
2023/02/03 08:41:46;;;;;;;;;28.00;27.00;;;;;;;;5095882;27;51012;-48
2023/02/03 08:44:31;;;;;;;;;20.50;19.50;;;;;;;;5096807;27;51080;-52
2023/02/03 08:47:16;;;;;;;;;23.50;17.25;;;;;;;;5090199;27;51440;-51
2023/02/03 08:50:00;;;;;;;;;21.50;18.75;;;;;;;;5094895;27;51218;-50
2023/02/03 08:52:44;;;;;;;;;25.00;23.25;;;;;;;;5084498;27;51335;-52
2023/02/03 08:55:29;;;;;;;;;26.50;23.00;;;;;;;;5081642;27;51095;-47
2023/02/03 08:58:13;;;;;;;;;22.75;20.50;;;;;;;;5079119;27;51158;-54
2023/02/03 09:01:12;;;;;;;;;23.75;22.75;;;;;;;;5079347;27;51077;-54
2023/02/03 09:03:56;;;;;;;;;18.75;18.75;;;;;;;;5078878;27;51170;-52
2023/02/03 09:06:40;;;;;;;;;22.50;21.50;;;;;;;;5081342;27;51115;-52
2023/02/03 09:09:25;;;;;;;;;19.50;18.50;;;;;;;;5077228;27;51201;-47
2023/02/03 09:12:11;;;;;;;;;26.75;21.25;;;;;;;;5065727;27;51222;-50
2023/02/03 09:14:55;;;;;;;;;19.75;19.25;;;;;;;;5069068;27;52733;-47
2023/02/03 09:17:40;;;;;;;;;22.50;21.50;;;;;;;;5072885;27;51231;-46
2023/02/03 09:20:24;;;;;;;;;21.25;21.00;;;;;;;;5074791;27;52214;-45
2023/02/03 09:23:08;;;;;;;;;20.25;18.25;;;;;;;;5071895;27;51132;-50
2023/02/03 09:25:53;;;;;;;;;19.50;18.50;;;;;;;;5073263;27;51463;-47
2023/02/03 09:28:38;;;;;;;;;19.25;18.75;;;;;;;;5069934;27;51991;-53
2023/02/03 09:31:22;;;;;;;;;24.75;23.00;;;;;;;;5071829;27;51130;-51
2023/02/03 09:34:07;;;;;;;;;22.50;22.50;;;;;;;;5072840;27;51201;-48
2023/02/03 09:36:51;;;;;;;;;25.25;23.25;;;;;;;;5071193;27;53844;-45
2023/02/03 09:39:35;;;;;;;;;26.00;23.25;;;;;;;;5065480;27;51242;-49
2023/02/03 09:42:27;;;;;;;;;25.25;19.75;;;;;;;;5080136;27;51421;-48
2023/02/03 09:45:23;;;;;;;;;24.25;23.25;;;;;;;;5077948;27;51100;-50
2023/02/03 09:48:14;;;;;;;;;25.50;24.25;;;;;;;;5079277;27;51298;-45
2023/02/03 09:50:58;;;;;;;;;25.75;22.25;;;;;;;;5080676;27;52157;-48
2023/02/03 09:53:44;;;;;;;;;22.75;21.50;;;;;;;;5066455;27;51100;-49
2023/02/03 09:56:30;;;;;;;;;24.50;21.75;;;;;;;;5065568;27;51656;-46
2023/02/03 09:59:15;;;;;;;;;21.25;20.25;;;;;;;;5071053;27;51198;-48
2023/02/03 10:01:59;;;;;;;;;24.25;22.00;;;;;;;;5071506;27;51479;-50
2023/02/03 10:04:51;;;;;;;;;27.00;25.00;;;;;;;;5070105;27;51061;-50
2023/02/03 10:07:42;;;;;;;;;27.50;25.25;;;;;;;;5069393;27;51486;-46
2023/02/03 10:11:08;;;;;;;;;21.50;21.00;;;;;;;;5069178;27;51601;-52
2023/02/03 10:13:58;;;;;;;;;23.00;21.75;;;;;;;;5067760;27;51213;-46
2023/02/03 10:16:43;;;;;;;;;28.00;24.25;;;;;;;;5066582;27;52145;-47
2023/02/03 10:19:48;;;;;;;;;25.00;25.00;;;;;;;;5067685;27;51227;-46
2023/02/03 10:22:35;;;;;;;;;26.50;24.25;;;;;;;;5063466;27;51537;-49
2023/02/03 10:25:24;;;;;;;;;25.00;22.00;;;;;;;;5068210;27;51506;-44
2023/02/03 10:28:19;;;;;;;;;25.75;24.75;;;;;;;;5066287;27;51516;-47
2023/02/03 10:31:08;;;;;;;;;24.25;23.00;;;;;;;;5066179;27;51171;-52
2023/02/03 10:33:58;;;;;;;;;23.50;23.25;;;;;;;;5073889;27;51098;-49
2023/02/03 10:36:55;;;;;;;;;25.00;23.25;;;;;;;;5068700;27;51371;-48
2023/02/03 10:39:44;;;;;;;;;24.00;22.75;;;;;;;;5065541;27;51182;-53
2023/02/03 10:43:46;;;;;;;;;26.25;21.50;;;;;;;;5065588;27;51974;-48
2023/02/03 10:45:36;;;;;;;;;24.00;22.50;;;;;;;;5069221;27;51494;-49
2023/02/03 10:48:21;;;;;;;;;22.75;21.50;;;;;;;;5068015;27;51169;-48
2023/02/03 10:51:11;;;;;;;;;21.00;20.50;;;;;;;;5064883;27;51233;-46
2023/02/03 10:53:55;;;;;;;;;28.50;26.25;;;;;;;;5074323;27;51603;-46
2023/02/03 10:56:40;;;;;;;;;25.25;24.00;;;;;;;;5071011;27;51185;-50
2023/02/03 10:59:28;;;;;;;;;25.75;24.75;;;;;;;;5071629;27;51427;-52
2023/02/03 11:02:28;;;;;;;;;25.00;21.00;;;;;;;;5066321;27;51338;-47
2023/02/03 11:05:15;;;;;;;;;21.00;21.00;;;;;;;;5060808;27;51190;-46
2023/02/03 11:08:00;;;;;;;;;26.75;23.50;;;;;;;;5068177;27;51207;-45
2023/02/03 11:10:44;;;;;;;;;27.75;23.00;;;;;;;;5072205;27;51843;-46
2023/02/03 11:13:29;;;;;;;;;22.75;20.00;;;;;;;;5067792;27;51180;-45
2023/02/03 11:16:16;;;;;;;;;29.25;24.00;;;;;;;;5067796;27;51624;-43
2023/02/03 11:19:01;;;;;;;;;27.00;25.25;;;;;;;;5067800;27;51469;-51
2023/02/03 11:21:47;;;;;;;;;26.50;23.00;;;;;;;;5071729;27;51238;-47
2023/02/03 11:24:39;;;;;;;;;28.25;24.75;;;;;;;;5071945;27;51656;-52
2023/02/03 16:57:37;;;;;;;;;16.25;14.25;;;;;;;;4329213;32;51161;-54
2023/02/03 17:00:22;;;;;;;;;17.75;14.50;;;;;;;;5075489;28;51171;-47
2023/02/03 17:03:07;;;;;;;;;12.00;8.25;;;;;;;;5075086;28;51805;-49
2023/02/03 17:05:51;;;;;;;;;17.50;15.50;;;;;;;;5075556;28;51188;-55
2023/02/03 17:08:36;;;;;;;;;18.00;15.25;;;;;;;;5074352;28;51533;-45
2023/02/03 17:11:22;;;;;;;;;17.50;14.75;;;;;;;;5074709;28;52369;-47
2023/02/03 17:14:06;;;;;;;;;20.50;19.00;;;;;;;;5073416;28;52375;-49
2023/02/03 17:16:50;;;;;;;;;18.00;16.00;;;;;;;;5074552;28;51204;-50
2023/02/03 17:19:35;;;;;;;;;32.25;28.00;;;;;;;;5074036;28;51546;-51
2023/02/03 17:22:19;;;;;;;;;25.25;21.25;;;;;;;;5074170;28;51171;-51
2023/02/03 17:25:04;;;;;;;;;34.75;31.25;;;;;;;;5076206;28;51179;-50
2023/02/03 17:27:48;;;;;;;;;37.00;30.00;;;;;;;;5075905;28;51489;-46
2023/02/03 17:30:33;;;;;;;;;23.25;15.25;;;;;;;;5074733;28;51202;-49
2023/02/03 17:33:18;;;;;;;;;17.25;15.25;;;;;;;;5076221;28;51084;-52
2023/02/03 17:36:08;;;;;;;;;16.00;12.00;;;;;;;;5074915;28;51085;-48
2023/02/03 17:38:55;;;;;;;;;24.50;21.50;;;;;;;;5075659;28;51148;-49
2023/02/03 17:41:40;;;;;;;;;22.75;20.25;;;;;;;;5075794;28;51596;-50
2023/02/03 17:44:24;;;;;;;;;26.75;22.00;;;;;;;;5075527;28;51450;-47
2023/02/03 17:47:09;;;;;;;;;25.00;20.00;;;;;;;;5075096;28;51217;-54
2023/02/03 17:49:53;;;;;;;;;15.75;15.75;;;;;;;;5074141;28;51112;-47
2023/02/03 17:52:38;;;;;;;;;15.50;15.50;;;;;;;;5075017;28;51051;-49
2023/02/03 17:55:22;;;;;;;;;18.00;12.75;;;;;;;;5074956;28;51121;-48
2023/02/03 17:58:06;;;;;;;;;23.50;16.75;;;;;;;;5064049;28;51533;-49
2023/02/03 18:00:51;;;;;;;;;17.50;15.75;;;;;;;;5061726;28;51168;-55
2023/02/03 18:03:35;;;;;;;;;21.50;19.50;;;;;;;;5062055;28;51511;-55
2023/02/03 18:06:20;;;;;;;;;25.75;22.00;;;;;;;;5061608;28;51278;-47
2023/02/03 18:09:06;;;;;;;;;18.25;17.75;;;;;;;;5061371;28;51488;-51
2023/02/03 18:11:50;;;;;;;;;15.50;14.50;;;;;;;;5061943;28;51492;-53
2023/02/03 18:14:35;;;;;;;;;17.00;15.50;;;;;;;;5062262;28;51101;-48
2023/02/03 18:17:19;;;;;;;;;16.75;13.50;;;;;;;;5061382;28;51118;-50
2023/02/03 18:20:04;;;;;;;;;18.25;15.50;;;;;;;;5061719;28;51220;-46
2023/02/03 18:22:48;;;;;;;;;19.25;18.00;;;;;;;;5061822;28;51140;-50
2023/02/03 18:25:35;;;;;;;;;17.50;17.25;;;;;;;;5061148;28;51050;-50
2023/02/03 18:28:20;;;;;;;;;18.00;15.00;;;;;;;;5061763;28;51517;-51
2023/02/03 18:31:06;;;;;;;;;16.75;14.00;;;;;;;;5061376;28;51120;-44
2023/02/03 18:33:50;;;;;;;;;14.75;13.75;;;;;;;;5061360;28;51436;-49
2023/02/03 18:36:34;;;;;;;;;18.25;16.00;;;;;;;;5060776;28;51158;-55
2023/02/03 18:39:18;;;;;;;;;19.75;17.00;;;;;;;;5060741;28;51175;-50
2023/02/03 18:42:05;;;;;;;;;25.50;18.50;;;;;;;;5060664;28;51438;-46
2023/02/03 18:44:49;;;;;;;;;22.75;20.00;;;;;;;;5061153;28;51163;-50
2023/02/03 18:47:34;;;;;;;;;18.50;15.25;;;;;;;;5061234;28;51078;-47
2023/02/03 18:50:18;;;;;;;;;17.50;16.00;;;;;;;;5057627;28;52177;-46
2023/02/03 18:53:03;;;;;;;;;16.75;15.00;;;;;;;;5058877;28;51458;-50
2023/02/03 18:55:47;;;;;;;;;14.00;14.00;;;;;;;;5060132;28;51431;-50
2023/02/03 18:58:32;;;;;;;;;16.50;15.25;;;;;;;;5060282;28;51871;-49
2023/02/03 19:01:23;;;;;;;;;14.50;14.50;;;;;;;;5059414;28;51220;-49
2023/02/03 19:04:08;;;;;;;;;18.75;16.25;;;;;;;;5061208;28;51132;-49
2023/02/03 19:06:52;;;;;;;;;19.25;14.00;;;;;;;;5060145;28;51563;-52
2023/02/03 19:09:37;;;;;;;;;18.25;14.25;;;;;;;;5059619;28;51161;-48
2023/02/03 19:12:21;;;;;;;;;18.00;14.50;;;;;;;;5060192;28;51196;-49
2023/02/03 19:15:06;;;;;;;;;16.50;13.00;;;;;;;;5058565;28;51161;-50
2023/02/03 19:17:50;;;;;;;;;19.50;15.00;;;;;;;;5060944;28;51034;-56
2023/02/03 19:20:34;;;;;;;;;19.75;15.50;;;;;;;;5059463;28;51560;-47
2023/02/03 19:23:19;;;;;;;;;14.50;13.25;;;;;;;;5060069;28;51392;-50
2023/02/03 19:26:03;;;;;;;;;16.75;16.50;;;;;;;;5058445;28;51153;-51
2023/02/03 19:28:47;;;;;;;;;15.75;14.50;;;;;;;;5060091;28;51500;-48
2023/02/03 19:31:32;;;;;;;;;17.00;13.75;;;;;;;;5059558;28;51420;-56
2023/02/03 19:34:16;;;;;;;;;17.50;15.75;;;;;;;;5058913;28;51235;-58
2023/02/03 19:37:01;;;;;;;;;19.25;16.25;;;;;;;;5058915;28;51072;-56
2023/02/03 19:39:49;;;;;;;;;19.00;16.75;;;;;;;;5058739;28;51269;-57
2023/02/03 19:42:33;;;;;;;;;15.75;15.00;;;;;;;;5062413;27;51551;-57
2023/02/03 19:45:17;;;;;;;;;16.75;15.00;;;;;;;;5050160;28;52494;-60
2023/02/03 19:48:02;;;;;;;;;18.25;16.75;;;;;;;;5058813;28;51175;-56
2023/02/03 19:50:49;;;;;;;;;18.00;17.00;;;;;;;;5054970;27;52171;-56
2023/02/03 19:53:34;;;;;;;;;20.50;19.50;;;;;;;;5051379;28;51713;-56
2023/02/03 19:56:18;;;;;;;;;16.50;15.50;;;;;;;;5048931;28;51160;-59
2023/02/03 19:59:03;;;;;;;;;16.25;12.50;;;;;;;;5054434;28;51138;-55
2023/02/03 20:01:52;;;;;;;;;21.50;17.00;;;;;;;;5056626;28;51420;-57
2023/02/03 20:04:36;;;;;;;;;16.50;15.00;;;;;;;;5055548;28;52852;-58
2023/02/03 20:07:22;;;;;;;;;20.75;13.75;;;;;;;;5044770;27;51240;-56
2023/02/03 20:10:06;;;;;;;;;16.00;16.00;;;;;;;;5059375;28;51506;-58
2023/02/03 20:12:51;;;;;;;;;21.00;16.00;;;;;;;;5055852;28;51430;-59
2023/02/03 20:15:36;;;;;;;;;22.75;18.00;;;;;;;;5057862;28;51101;-57
2023/02/03 20:18:20;;;;;;;;;19.00;15.25;;;;;;;;5056133;28;51083;-58
2023/02/03 20:21:05;;;;;;;;;16.50;15.25;;;;;;;;5057448;28;51429;-57
2023/02/03 20:23:49;;;;;;;;;18.75;14.75;;;;;;;;5057529;28;51098;-59
2023/02/03 20:26:34;;;;;;;;;18.50;16.50;;;;;;;;5057511;28;51311;-57
2023/02/03 20:29:18;;;;;;;;;16.25;15.00;;;;;;;;5059153;28;51073;-56
2023/02/03 20:32:05;;;;;;;;;15.50;15.25;;;;;;;;5059072;28;51203;-59
2023/02/03 20:34:51;;;;;;;;;19.00;17.25;;;;;;;;5056858;28;52610;-59
2023/02/03 20:37:35;;;;;;;;;18.50;15.50;;;;;;;;5058743;28;51204;-58
2023/02/03 20:40:21;;;;;;;;;23.00;17.00;;;;;;;;5058979;28;51180;-59
2023/02/03 20:43:26;;;;;;;;;19.75;17.00;;;;;;;;5054742;28;51070;-58
2023/02/03 20:46:11;;;;;;;;;22.25;15.50;;;;;;;;5056735;28;51128;-58
2023/02/03 20:48:55;;;;;;;;;19.00;17.00;;;;;;;;5057690;28;51134;-57
2023/02/03 20:51:40;;;;;;;;;25.25;22.50;;;;;;;;5058345;28;51102;-56
2023/02/03 20:54:24;;;;;;;;;33.25;27.75;;;;;;;;5056922;28;51167;-55
2023/02/03 20:57:16;;;;;;;;;33.00;30.25;;;;;;;;5058502;28;51086;-57
2023/02/03 21:00:01;;;;;;;;;25.25;23.00;;;;;;;;5058549;28;51438;-59
2023/02/03 21:05:48;;;;;;;;;20.50;16.75;;;;;;;;5056804;28;51136;-59
2023/02/03 21:08:34;;;;;;;;;16.50;15.25;;;;;;;;5059256;28;51134;-57
2023/02/03 21:11:19;;;;;;;;;17.00;14.00;;;;;;;;5053276;28;51567;-58
2023/02/03 21:14:13;;;;;;;;;16.50;15.00;;;;;;;;5057475;28;51064;-59
2023/02/03 21:16:58;;;;;;;;;25.50;17.25;;;;;;;;5054958;28;51197;-56
2023/02/03 21:19:42;;;;;;;;;16.75;15.25;;;;;;;;5055174;28;51154;-58
2023/02/03 21:22:29;;;;;;;;;17.75;16.75;;;;;;;;5056652;28;51108;-59
2023/02/03 21:25:24;;;;;;;;;25.50;18.25;;;;;;;;5055242;28;51536;-58
2023/02/03 21:28:20;;;;;;;;;16.50;15.25;;;;;;;;5056629;28;51053;-59
2023/02/03 21:31:04;;;;;;;;;19.00;16.75;;;;;;;;5055936;28;51100;-59
2023/02/03 21:33:49;;;;;;;;;16.50;15.75;;;;;;;;5059315;28;51308;-57
2023/02/03 21:36:34;;;;;;;;;14.00;12.25;;;;;;;;5058442;28;51080;-57
2023/02/03 21:39:24;;;;;;;;;17.75;17.75;;;;;;;;5059173;28;51137;-57
2023/02/03 21:42:40;;;;;;;;;18.25;16.25;;;;;;;;5057432;28;52164;-56
2023/02/03 21:45:27;;;;;;;;;19.25;15.25;;;;;;;;5056369;28;51091;-57
2023/02/03 21:48:23;;;;;;;;;16.75;16.25;;;;;;;;5058486;28;51113;-56
2023/02/03 21:51:14;;;;;;;;;12.25;9.00;;;;;;;;5058898;28;51145;-56
2023/02/03 21:53:59;;;;;;;;;17.50;16.25;;;;;;;;5058329;28;51545;-59
2023/02/03 21:56:46;;;;;;;;;17.00;13.75;;;;;;;;5059345;28;51097;-59
2023/02/03 21:59:37;;;;;;;;;19.75;17.00;;;;;;;;5058908;28;51459;-59
2023/02/03 22:02:43;;;;;;;;;16.25;15.00;;;;;;;;5071893;27;51501;-57
2023/02/03 22:05:27;;;;;;;;;18.50;16.75;;;;;;;;5058375;28;51127;-59
2023/02/03 22:08:21;;;;;;;;;16.25;14.75;;;;;;;;5057072;28;51469;-56